Current Conditions
Mostly Cloudy
Conditions



Pressure
1018.96 (hPa) - 30.09 (inHG)
Visibility

9.7 (km) - 6.0 (miles)
Temperature
23  °C
Temperature
12  °C
Dewpoint
50  %
 Humidity
Wind Speed
16  km/h
9  kts
10  mph
4.5  m/s
Wind Direction
N
45°
E
90°
135°
S
180°
225°
W
270°
315°
 330°

North North
West
Airport Data
EHDL
Deelen Air Base
Metar :EHDL 231725Z AUTO 33009KT 290V050 9999 BKN048 OVC052 23/12 Q1019 BLU
Sun 23rd June 19:25 pm
Raw Metar Info
Raw METAR is the most common format in the world for the transmission of observational weather data. It is highly standardized through the International Civil Aviation Organization (ICAO), which allows it to be understood throughout most of the world.
API Info
Data Provided by
https://www.checkwx.com/weather/EHDL

Aviation Weather providing METAR, TAF, AIRMET, SIGMET and OUTLOOK Weather Reports
© Info
CSS/SVG/PHP scripts were developed by weather34 for use in the weather34 template © 2015-2024

Guide Info provided by Metar-Wikipedia